Time;durP1;ratioP1;P1;durP2;ratioP2;P2;SDS_P1;SDS_P2;PMS_P1;PMS_P2;Temp;Humidity;BMP_temperature;BMP_pressure;BME280_temperature;BME280_humidity;BME280_pressure;Samples;Min_cycle;Max_cycle;Signal;HPM_P1;HPM_P2
2023/09/09 00:01:09;;;;;;;5.17;3.87;;;;;;;18.96;89.21;101489.72;5055101;28;20032;-91
2023/09/09 00:03:49;;;;;;;5.80;3.97;;;;;;;18.88;89.54;101482.09;5055757;28;20035;-92
2023/09/09 00:06:14;;;;;;;5.25;3.97;;;;;;;18.88;89.56;101486.50;5055165;28;20107;-90
2023/09/09 00:08:40;;;;;;;5.03;3.60;;;;;;;18.92;89.86;101504.72;5055656;28;20052;-91
2023/09/09 00:11:06;;;;;;;4.85;3.67;;;;;;;18.86;89.63;101502.34;5055188;28;20017;-91
2023/09/09 00:13:46;;;;;;;5.07;3.73;;;;;;;18.78;89.92;101483.41;5055034;28;20028;-92
2023/09/09 00:16:12;;;;;;;4.93;3.70;;;;;;;18.70;90.00;101478.44;5055518;28;20074;-92
2023/09/09 00:18:38;;;;;;;4.53;3.70;;;;;;;18.77;90.12;101500.94;5055561;28;20020;-91
2023/09/09 00:21:04;;;;;;;5.10;3.80;;;;;;;18.74;89.95;101494.94;5058864;28;20025;-90
2023/09/09 00:23:43;;;;;;;5.50;3.95;;;;;;;18.67;90.25;101487.31;5057194;28;20021;-91
2023/09/09 00:26:08;;;;;;;5.30;3.90;;;;;;;18.71;90.17;101495.03;5054729;28;20052;-92
2023/09/09 00:28:33;;;;;;;5.63;3.60;;;;;;;18.67;90.25;101500.44;5054907;28;20021;-92
2023/09/09 00:30:59;;;;;;;5.30;3.70;;;;;;;18.55;90.30;101485.16;5055374;28;20032;-92
2023/09/09 00:33:40;;;;;;;5.13;3.50;;;;;;;18.57;91.15;101487.72;5054717;28;20375;-91
2023/09/09 00:36:06;;;;;;;5.07;3.80;;;;;;;18.57;90.69;101492.97;5054147;28;20032;-92
2023/09/09 00:38:31;;;;;;;4.93;3.80;;;;;;;18.54;90.86;101486.06;5055368;28;20045;-92
2023/09/09 00:41:14;;;;;;;5.20;3.97;;;;;;;18.48;90.76;101484.53;5056474;28;20032;-90
2023/09/09 00:43:40;;;;;;;4.90;3.90;;;;;;;18.51;90.86;101494.94;5071688;28;20466;-92
2023/09/09 00:46:10;;;;;;;5.50;4.07;;;;;;;18.49;90.94;101493.25;5055084;28;20070;-92
2023/09/09 00:48:39;;;;;;;5.93;4.10;;;;;;;18.48;90.92;101488.91;5054569;28;20028;-92
2023/09/09 00:51:05;;;;;;;5.47;3.90;;;;;;;18.44;90.99;101490.81;5054642;28;20021;-92
2023/09/09 00:53:31;;;;;;;;;;;;;;;18.44;91.15;101492.59;5055019;28;20025;-92
2023/09/09 00:55:59;;;;;;;6.25;4.20;;;;;;;18.39;91.00;101487.50;5054677;28;19912;-92
2023/09/09 00:58:25;;;;;;;6.28;4.05;;;;;;;18.41;91.09;101492.69;5054008;28;20017;-91
2023/09/09 01:00:50;;;;;;;5.90;3.97;;;;;;;18.40;91.33;101490.97;5054518;28;20598;-91
2023/09/09 01:03:15;;;;;;;6.20;4.20;;;;;;;18.35;91.12;101492.00;5054475;28;20032;-92
2023/09/09 01:05:41;;;;;;;5.70;4.10;;;;;;;18.34;91.31;101486.81;5054791;28;20021;-92
2023/09/09 01:08:07;;;;;;;5.53;3.80;;;;;;;18.24;91.61;101475.78;5054070;28;20083;-92
2023/09/09 01:10:32;;;;;;;7.03;4.37;;;;;;;18.29;91.30;101487.00;5054554;28;20286;-92
2023/09/09 01:12:57;;;;;;;6.67;4.37;;;;;;;18.28;91.51;101500.19;5054180;28;20052;-92
2023/09/09 01:15:23;;;;;;;6.23;4.20;;;;;;;18.25;91.19;101498.50;5046223;28;20048;-91
2023/09/09 01:17:49;;;;;;;5.90;4.40;;;;;;;18.24;91.67;101490.69;5034144;28;20154;-91
2023/09/09 01:20:19;;;;;;;5.72;4.13;;;;;;;18.19;91.54;101483.84;5034193;28;20454;-92
2023/09/09 01:22:48;;;;;;;6.57;4.40;;;;;;;18.22;91.48;101488.16;5034511;28;20033;-91
2023/09/09 01:25:13;;;;;;;6.10;4.20;;;;;;;18.16;91.52;101489.22;5033666;28;20041;-91
2023/09/09 01:27:39;;;;;;;6.87;4.23;;;;;;;18.18;91.67;101487.38;5034400;28;20500;-91
2023/09/09 01:30:05;;;;;;;6.97;4.57;;;;;;;18.16;91.90;101497.09;5034019;28;20032;-91
2023/09/09 01:32:30;;;;;;;6.28;4.40;;;;;;;18.14;91.87;101492.81;5033876;28;20033;-91
2023/09/09 01:34:55;;;;;;;6.33;4.13;;;;;;;18.13;91.79;101480.56;5033827;28;20034;-92
2023/09/09 01:37:21;;;;;;;6.37;4.53;;;;;;;18.11;91.95;101488.53;5033686;28;20112;-91
2023/09/09 01:39:47;;;;;;;7.37;4.90;;;;;;;18.07;92.08;101481.66;5045915;28;20056;-91
2023/09/09 01:42:12;;;;;;;7.43;4.78;;;;;;;18.08;91.91;101488.63;5043469;28;20291;-91
2023/09/09 01:44:39;;;;;;;7.30;4.73;;;;;;;18.04;92.07;101484.41;5034070;28;20080;-91
2023/09/09 01:47:05;;;;;;;7.53;4.70;;;;;;;18.05;92.25;101486.97;5033519;28;20022;-91
2023/09/09 01:49:30;;;;;;;6.55;4.65;;;;;;;18.05;92.22;101492.22;5033748;28;20167;-91
2023/09/09 01:51:55;;;;;;;6.57;4.40;;;;;;;18.02;92.22;101492.34;5033357;28;20493;-91
2023/09/09 01:54:21;;;;;;;6.70;4.33;;;;;;;18.00;92.28;101480.19;5052191;28;20036;-91
2023/09/09 01:56:46;;;;;;;6.00;4.47;;;;;;;17.94;92.33;101481.22;5053839;28;20049;-91
2023/09/09 01:59:12;;;;;;;6.77;4.60;;;;;;;17.93;92.35;101483.91;5053497;28;20025;-91
2023/09/09 02:01:37;;;;;;;6.10;4.30;;;;;;;17.89;92.55;101483.19;5053416;28;20031;-91
2023/09/09 02:04:02;;;;;;;7.50;4.40;;;;;;;17.84;92.44;101488.59;5053489;28;20044;-91
2023/09/09 02:06:28;;;;;;;5.77;4.13;;;;;;;17.81;92.44;101488.69;5053853;28;20504;-91
2023/09/09 02:08:54;;;;;;;5.90;4.20;;;;;;;17.74;92.59;101476.69;5053488;28;20496;-92
2023/09/09 02:11:22;;;;;;;6.40;4.40;;;;;;;17.73;92.90;101485.50;5053626;28;20025;-90
2023/09/09 02:13:47;;;;;;;6.20;4.30;;;;;;;17.69;92.60;101479.47;5053734;28;20020;-91
2023/09/09 02:16:12;;;;;;;5.37;4.07;;;;;;;17.70;92.70;101483.81;5039639;28;20041;-92
2023/09/09 02:18:39;;;;;;;6.10;4.27;;;;;;;17.69;92.85;101479.47;5033970;28;20026;-92
2023/09/09 02:21:05;;;;;;;6.45;4.30;;;;;;;17.69;93.07;101484.72;5033509;28;20041;-91
2023/09/09 02:23:31;;;;;;;8.82;5.10;;;;;;;17.67;93.02;101476.06;5033331;28;20037;-92
2023/09/09 02:25:56;;;;;;;7.87;4.80;;;;;;;17.66;93.32;101471.72;5046291;28;20041;-90
2023/09/09 02:28:22;;;;;;;7.37;4.80;;;;;;;17.67;93.00;101486.56;5053134;28;20037;-92
2023/09/09 02:33:41;;;;;;;8.35;5.00;;;;;;;17.67;93.40;101485.69;5053571;28;20031;-91
2023/09/09 02:36:07;;;;;;;8.00;5.03;;;;;;;17.65;93.18;101496.25;5053165;28;20170;-91
2023/09/09 02:38:33;;;;;;;8.13;5.07;;;;;;;17.63;93.01;101491.94;5053512;28;20477;-91
2023/09/09 02:40:59;;;;;;;6.90;4.57;;;;;;;17.54;93.25;101475.63;5052624;28;20079;-90
2023/09/09 02:43:43;;;;;;;6.77;4.57;;;;;;;17.49;93.26;101471.44;5053049;28;20469;-91
2023/09/09 02:46:08;;;;;;;7.68;4.72;;;;;;;17.53;93.36;101488.81;5054255;28;20033;-91
2023/09/09 02:48:34;;;;;;;7.73;5.13;;;;;;;17.49;93.44;101488.06;5056598;28;20048;-91
2023/09/09 02:50:59;;;;;;;8.30;5.20;;;;;;;17.46;93.34;101490.78;5057139;28;20021;-91
2023/09/09 02:53:24;;;;;;;8.00;4.80;;;;;;;17.45;93.35;101495.16;5057979;28;20028;-90
2023/09/09 02:55:50;;;;;;;8.83;5.17;;;;;;;17.38;93.51;101480.53;5057375;28;20022;-90
2023/09/09 02:58:15;;;;;;;8.17;4.90;;;;;;;17.37;93.55;101481.44;5057217;28;20063;-91
2023/09/09 03:00:40;;;;;;;7.50;4.80;;;;;;;17.35;93.52;101485.88;5056304;28;20357;-90
2023/09/09 03:03:06;;;;;;;6.27;4.40;;;;;;;17.29;93.40;101480.84;5056590;28;20021;-90
2023/09/09 03:05:35;;;;;;;6.00;4.13;;;;;;;17.26;93.45;101491.44;5056607;28;20377;-90
2023/09/09 03:08:02;;;;;;;5.82;3.92;;;;;;;17.21;93.60;101488.13;5048820;28;20485;-90
2023/09/09 03:10:28;;;;;;;5.15;3.70;;;;;;;17.18;93.76;101486.44;5036652;28;20055;-90
2023/09/09 03:12:56;;;;;;;6.37;4.27;;;;;;;17.18;93.87;101488.22;5036063;28;20025;-90
2023/09/09 03:15:21;;;;;;;7.40;4.65;;;;;;;17.18;93.86;101488.22;5035998;28;20029;-90
2023/09/09 03:17:46;;;;;;;8.83;5.00;;;;;;;17.10;93.59;101475.34;5035728;28;20152;-89
2023/09/09 03:20:13;;;;;;;10.17;5.50;;;;;;;17.14;94.12;101485.69;5035650;28;20163;-90
2023/09/09 03:22:38;;;;;;;8.85;5.13;;;;;;;17.15;94.05;101491.81;5036874;28;20065;-90
2023/09/09 03:25:04;;;;;;;9.90;5.30;;;;;;;17.10;94.14;101486.72;5035912;28;20099;-89
2023/09/09 03:27:42;;;;;;;8.37;4.90;;;;;;;17.09;94.11;101486.75;5035371;28;20025;-89
2023/09/09 03:30:09;;;;;;;7.60;4.53;;;;;;;17.04;94.29;101481.66;5035664;28;20291;-90
2023/09/09 03:32:34;;;;;;;7.07;4.50;;;;;;;16.91;94.19;101468.06;5035969;28;20104;-90
2023/09/09 03:35:20;;;;;;;8.00;4.60;;;;;;;17.00;94.41;101490.50;5036402;28;20176;-90
2023/09/09 03:37:45;;;;;;;;;;;;;;;16.95;94.41;101485.41;5036175;28;20021;-90
2023/09/09 03:40:11;;;;;;;6.97;4.23;;;;;;;16.92;94.51;101482.88;5035872;28;20047;-90
2023/09/09 03:42:38;;;;;;;5.90;4.07;;;;;;;16.86;94.38;101476.97;5035879;28;20033;-91
2023/09/09 03:45:04;;;;;;;6.05;4.00;;;;;;;16.85;94.58;101480.50;5039253;28;20025;-90
2023/09/09 03:47:29;;;;;;;7.40;4.70;;;;;;;16.82;94.57;101478.84;5055329;28;20085;-90
2023/09/09 03:49:54;;;;;;;8.80;5.20;;;;;;;16.85;94.94;101486.59;5055828;28;20032;-90
2023/09/09 03:52:20;;;;;;;8.37;5.03;;;;;;;16.85;94.71;101485.75;5055275;28;20028;-90
2023/09/09 03:54:45;;;;;;;8.70;5.40;;;;;;;16.87;94.69;101483.94;5055460;28;20114;-90
2023/09/09 03:57:10;;;;;;;8.53;5.47;;;;;;;16.81;94.50;101490.22;5055264;28;20026;-90
2023/09/09 03:59:36;;;;;;;7.97;4.90;;;;;;;16.79;94.72;101481.53;5055805;28;20032;-90
2023/09/09 04:02:02;;;;;;;7.63;4.70;;;;;;;16.76;94.77;101484.25;5055054;28;20017;-90
2023/09/09 04:04:27;;;;;;;7.32;4.53;;;;;;;16.73;94.87;101493.06;5055332;28;20044;-90
2023/09/09 04:07:10;;;;;;;8.20;4.83;;;;;;;16.72;94.86;101491.34;5055515;28;20071;-90
2023/09/09 04:09:40;;;;;;;8.02;4.80;;;;;;;16.62;94.94;101474.19;5055584;28;20025;-90
2023/09/09 04:12:07;;;;;;;7.78;4.68;;;;;;;16.73;94.77;101497.44;5055215;28;20025;-90
2023/09/09 04:14:32;;;;;;;9.13;5.45;;;;;;;16.65;95.12;101487.22;5056322;28;20104;-90
2023/09/09 04:17:12;;;;;;;8.50;5.03;;;;;;;16.58;95.02;101477.81;5075992;28;20017;-90
2023/09/09 04:19:38;;;;;;;10.57;5.38;;;;;;;16.67;95.23;101488.88;5054622;28;20656;-90
2023/09/09 04:22:03;;;;;;;9.90;5.40;;;;;;;16.65;95.22;101484.59;5054860;28;20025;-90
2023/09/09 04:24:28;;;;;;;11.60;5.63;;;;;;;16.64;95.21;101495.97;5054615;28;20129;-90
2023/09/09 04:26:54;;;;;;;12.30;6.17;;;;;;;16.65;95.27;101490.69;5054063;28;20013;-90
2023/09/09 04:29:19;;;;;;;11.87;6.47;;;;;;;16.60;95.25;101487.38;5054541;28;20035;-90
2023/09/09 04:31:46;;;;;;;12.27;6.43;;;;;;;16.60;95.44;101486.50;5055087;28;20104;-90
2023/09/09 04:34:12;;;;;;;14.15;7.13;;;;;;;16.61;95.25;101491.66;5054167;28;20466;-90
2023/09/09 04:36:37;;;;;;;11.27;6.10;;;;;;;16.60;95.35;101496.97;5055207;28;20035;-90
2023/09/09 04:39:03;;;;;;;14.10;7.07;;;;;;;16.58;95.42;101496.16;5054879;28;20108;-90
2023/09/09 04:41:28;;;;;;;13.40;6.80;;;;;;;16.55;95.57;101491.03;5054330;28;20033;-91
2023/09/09 04:43:53;;;;;;;10.87;6.10;;;;;;;16.57;95.54;101502.28;5054911;28;20043;-91
2023/09/09 04:46:19;;;;;;;10.33;5.87;;;;;;;16.55;95.47;101506.75;5037691;28;20071;-90
2023/09/09 04:48:44;;;;;;;10.77;5.73;;;;;;;16.51;95.57;101504.22;5034428;28;20449;-90
2023/09/09 04:51:11;;;;;;;10.45;5.57;;;;;;;16.45;95.35;101501.75;5034554;28;20489;-90
2023/09/09 04:53:36;;;;;;;10.60;5.93;;;;;;;16.46;95.67;101500.00;5034869;28;20021;-90
2023/09/09 04:56:03;;;;;;;9.27;5.50;;;;;;;16.42;95.81;101504.50;5034673;28;20029;-89
2023/09/09 04:58:29;;;;;;;9.40;5.57;;;;;;;16.39;96.04;101503.69;5035224;28;20068;-90
2023/09/09 05:00:54;;;;;;;8.90;5.30;;;;;;;16.32;95.73;101498.66;5034538;28;20470;-90
2023/09/09 05:03:20;;;;;;;8.13;4.90;;;;;;;16.30;95.70;101499.59;5034487;28;20466;-90
2023/09/09 05:05:45;;;;;;;8.67;5.30;;;;;;;16.27;95.83;101508.38;5034517;28;20068;-90
2023/09/09 05:08:10;;;;;;;6.83;4.67;;;;;;;16.25;95.95;101504.09;5043844;22;20049;-90
2023/09/09 05:10:37;;;;;;;8.30;5.00;;;;;;;16.18;95.94;101509.53;5053942;28;20032;-90
2023/09/09 05:13:03;;;;;;;8.77;5.10;;;;;;;16.15;96.10;101506.13;5054325;28;20052;-91
2023/09/09 05:15:28;;;;;;;7.78;4.65;;;;;;;16.12;96.29;101508.84;5054641;28;20381;-91
2023/09/09 05:17:54;;;;;;;9.57;5.20;;;;;;;16.14;96.18;101510.50;5059515;28;20080;-89
2023/09/09 05:20:19;;;;;;;8.60;5.13;;;;;;;16.12;96.19;101512.28;5063140;28;20123;-90
2023/09/09 05:22:44;;;;;;;8.10;5.10;;;;;;;16.08;96.27;101508.06;5057177;28;20047;-90
2023/09/09 05:25:10;;;;;;;8.93;5.20;;;;;;;16.04;96.37;101507.25;5054969;28;20024;-89
2023/09/09 05:27:38;;;;;;;8.03;4.97;;;;;;;16.06;96.36;101512.47;5054878;28;20029;-85
2023/09/09 05:30:04;;;;;;;7.28;4.60;;;;;;;16.08;96.56;101517.66;5052276;28;20174;-89
2023/09/09 05:32:29;;;;;;;;;;;;;;;16.08;96.51;101518.53;5053559;28;20477;-91
2023/09/09 05:34:55;;;;;;;8.63;5.20;;;;;;;16.09;96.49;101519.38;5052995;28;20007;-86
2023/09/09 05:37:20;;;;;;;9.87;5.17;;;;;;;16.12;96.54;101528.00;5051662;28;20057;-85
2023/09/09 05:39:45;;;;;;;8.83;5.07;;;;;;;16.13;96.63;101524.50;5052367;28;20025;-85
2023/09/09 05:42:11;;;;;;;7.90;4.60;;;;;;;16.16;96.53;101531.41;5052444;28;20461;-85
2023/09/09 05:44:36;;;;;;;8.73;5.03;;;;;;;16.12;96.45;101522.78;5049848;28;20465;-85
2023/09/09 05:47:02;;;;;;;8.63;4.93;;;;;;;16.17;96.52;101520.91;5052442;28;20103;-85
2023/09/09 05:49:27;;;;;;;7.43;4.50;;;;;;;16.18;96.84;101530.47;5052802;28;20511;-85
2023/09/09 05:51:53;;;;;;;8.03;4.63;;;;;;;16.18;96.76;101527.84;5051876;28;20021;-85
2023/09/09 05:54:18;;;;;;;7.10;4.40;;;;;;;16.20;96.64;101533.91;5050723;28;20025;-85
2023/09/09 05:56:50;;;;;;;9.27;4.97;;;;;;;16.18;96.86;101530.47;5052874;28;20021;-85
2023/09/09 05:59:23;;;;;;;8.25;4.85;;;;;;;16.10;97.06;101516.72;5051357;28;20465;-86
2023/09/09 06:01:51;;;;;;;7.75;4.40;;;;;;;16.25;96.92;101540.75;5052305;28;20079;-85
2023/09/09 06:04:25;;;;;;;7.05;4.50;;;;;;;16.15;97.23;101525.31;5051882;28;20029;-85
2023/09/09 06:06:57;;;;;;;7.95;4.80;;;;;;;16.26;97.53;101529.38;5031715;28;20445;-85
2023/09/09 06:09:22;;;;;;;6.53;4.20;;;;;;;16.37;97.46;101543.03;5031980;28;20103;-85
2023/09/09 06:11:49;;;;;;;7.33;4.50;;;;;;;16.38;97.43;101542.13;5032561;28;20030;-86
2023/09/09 06:14:17;;;;;;;5.68;4.05;;;;;;;16.43;97.90;101542.88;5031166;28;20036;-86
2023/09/09 06:16:42;;;;;;;7.53;4.75;;;;;;;16.47;97.88;101543.66;5050557;28;20087;-86
2023/09/09 06:19:08;;;;;;;8.37;5.03;;;;;;;16.49;97.54;101537.44;5051003;28;20033;-85
2023/09/09 06:21:33;;;;;;;7.57;4.70;;;;;;;16.55;97.89;101546.91;5054174;28;20108;-85
2023/09/09 06:23:58;;;;;;;8.33;5.40;;;;;;;16.60;97.79;101547.63;5056096;28;20428;-86
2023/09/09 06:26:30;;;;;;;9.30;5.70;;;;;;;16.71;97.80;101551.69;5055369;28;20021;-85
2023/09/09 06:28:56;;;;;;;8.32;5.45;;;;;;;16.74;97.93;101551.59;5056274;28;20029;-85
2023/09/09 06:31:21;;;;;;;9.20;5.77;;;;;;;16.81;97.65;101563.63;5055632;28;20021;-85
2023/09/09 06:33:49;;;;;;;7.70;5.20;;;;;;;16.85;98.10;101556.50;5055762;28;20283;-88
2023/09/09 06:36:16;;;;;;;9.60;5.72;;;;;;;16.89;97.60;101560.78;5094595;23;20049;-91
2023/09/09 06:38:41;;;;;;;7.70;5.00;;;;;;;16.94;97.98;101564.97;5037180;28;20080;-91
2023/09/09 06:41:07;;;;;;;7.67;5.10;;;;;;;16.90;97.90;101557.22;5036764;28;20108;-92
2023/09/09 06:43:33;;;;;;;9.55;5.68;;;;;;;17.03;97.87;101566.47;5037344;28;20064;-91
2023/09/09 06:46:13;;;;;;;8.33;5.27;;;;;;;17.03;98.19;101561.22;5050130;28;20029;-91
2023/09/09 06:48:54;;;;;;;7.57;5.05;;;;;;;17.06;98.24;101562.88;5056684;28;20021;-87
2023/09/09 06:51:19;;;;;;;8.40;5.40;;;;;;;17.12;98.23;101566.16;5055941;28;20036;-84
2023/09/09 06:53:44;;;;;;;5.60;4.00;;;;;;;17.21;98.97;101579.94;5055627;28;20013;-84
2023/09/09 06:56:10;;;;;;;7.10;4.60;;;;;;;17.25;98.54;101578.91;5054654;28;20077;-86
2023/09/09 06:58:35;;;;;;;8.20;5.10;;;;;;;17.28;98.21;101581.44;5055400;28;20029;-87
2023/09/09 07:01:11;;;;;;;12.93;7.20;;;;;;;17.29;100.00;101577.91;5056011;28;20064;-87
2023/09/09 07:03:36;;;;;;;15.75;8.60;;;;;;;17.29;100.00;101575.28;5052444;28;20020;-86
2023/09/09 07:06:14;;;;;;;13.10;7.20;;;;;;;17.30;100.00;101579.63;5055807;28;20009;-86
2023/09/09 07:08:49;;;;;;;7.90;5.00;;;;;;;17.41;100.00;101588.03;5054616;28;20029;-87
2023/09/09 07:11:15;;;;;;;12.00;6.43;;;;;;;17.55;100.00;101597.22;5055501;28;20021;-86
2023/09/09 07:13:40;;;;;;;8.50;5.13;;;;;;;17.53;100.00;101583.28;5055459;28;20109;-86
2023/09/09 07:16:05;;;;;;;11.60;6.87;;;;;;;17.63;99.43;101581.19;5053843;28;20013;-86
2023/09/09 07:18:31;;;;;;;13.97;7.57;;;;;;;17.71;100.00;101587.91;5051793;28;20037;-91
2023/09/09 07:20:57;;;;;;;8.67;5.30;;;;;;;17.81;100.00;101600.72;5034491;28;20025;-92
2023/09/09 07:23:23;;;;;;;12.80;7.50;;;;;;;17.84;100.00;101598.00;5032497;28;20482;-91
2023/09/09 07:25:48;;;;;;;9.40;5.43;;;;;;;17.91;100.00;101602.13;5032298;28;20076;-92
2023/09/09 07:28:14;;;;;;;8.43;4.97;;;;;;;17.96;100.00;101600.22;5029938;28;20474;-92
2023/09/09 07:30:45;;;;;;;7.40;4.60;;;;;;;18.04;100.00;101599.97;5034223;28;20017;-91
2023/09/09 07:33:11;;;;;;;15.80;8.50;;;;;;;18.06;100.00;101604.25;5034159;28;20503;-92
2023/09/09 07:35:36;;;;;;;16.43;8.90;;;;;;;18.02;100.00;101592.13;5034457;28;20045;-91
2023/09/09 07:38:07;;;;;;;11.23;6.53;;;;;;;18.16;100.00;101598.69;5034760;28;20355;-92
2023/09/09 07:40:33;;;;;;;11.02;6.18;;;;;;;18.23;100.00;101605.47;5035244;28;20049;-92
2023/09/09 07:42:59;;;;;;;9.47;5.60;;;;;;;18.35;100.00;101605.00;5035649;28;20115;-92
2023/09/09 07:45:24;;;;;;;6.32;4.18;;;;;;;18.49;100.00;101606.28;5034360;28;20025;-91
2023/09/09 07:48:05;;;;;;;13.17;7.37;;;;;;;18.74;100.00;101608.88;5029909;28;20458;-92
2023/09/09 07:50:30;;;;;;;17.77;10.25;;;;;;;18.79;100.00;101603.44;5034855;28;20087;-92
2023/09/09 07:52:56;;;;;;;21.30;13.73;;;;;;;18.81;100.00;101597.19;5035512;28;20029;-91
2023/09/09 07:55:21;;;;;;;19.73;11.37;;;;;;;18.97;100.00;101610.66;5036198;28;20343;-90
2023/09/09 07:57:59;;;;;;;15.57;8.30;;;;;;;19.03;100.00;101593.75;5039132;28;20025;-90
2023/09/09 08:00:24;;;;;;;10.63;5.90;;;;;;;19.32;100.00;101615.44;5040074;28;20029;-90
2023/09/09 08:02:55;;;;;;;10.47;6.10;;;;;;;19.51;99.70;101614.72;5039359;28;20035;-90
2023/09/09 08:05:23;;;;;;;8.00;4.60;;;;;;;19.50;99.64;101599.84;5034181;28;20040;-90
2023/09/09 08:07:48;;;;;;;12.27;7.07;;;;;;;19.72;100.00;101618.22;5048530;23;20046;-91
2023/09/09 08:10:16;;;;;;;15.40;8.10;;;;;;;19.77;98.77;101616.25;5026408;28;20458;-90
2023/09/09 08:12:42;;;;;;;11.93;6.20;;;;;;;19.89;99.19;101620.16;5034037;28;20013;-91
2023/09/09 08:15:09;;;;;;;7.67;4.87;;;;;;;20.04;99.43;101613.41;5025741;28;20029;-91
2023/09/09 08:17:35;;;;;;;5.57;3.80;;;;;;;20.23;99.66;101625.78;5018288;28;20025;-90
2023/09/09 08:20:02;;;;;;;13.93;7.33;;;;;;;20.34;99.59;101629.66;5029761;28;20021;-86
2023/09/09 08:22:33;;;;;;;19.48;11.65;;;;;;;20.34;99.94;101629.66;5030403;28;20025;-90
2023/09/09 08:24:58;;;;;;;17.05;9.77;;;;;;;20.31;98.90;101618.41;5015565;28;20026;-91
2023/09/09 08:27:27;;;;;;;20.93;14.17;;;;;;;20.36;99.10;101608.53;5014527;28;20029;-90
2023/09/09 08:30:03;;;;;;;15.65;8.55;;;;;;;20.44;99.13;101609.03;5028965;28;20492;-91
2023/09/09 08:32:37;;;;;;;10.95;6.13;;;;;;;20.60;98.79;101608.34;5029126;28;20033;-92
2023/09/09 08:35:14;;;;;;;8.48;5.07;;;;;;;20.72;97.62;101612.19;5034542;28;20026;-92
2023/09/09 08:37:59;;;;;;;8.40;5.07;;;;;;;20.94;97.92;101627.91;5031527;28;20461;-92
2023/09/09 08:40:48;;;;;;;6.38;4.18;;;;;;;21.07;97.46;101621.13;5027105;28;20030;-91
2023/09/09 08:43:20;;;;;;;5.75;4.05;;;;;;;21.28;97.70;101635.09;5024932;28;20510;-91
2023/09/09 08:45:57;;;;;;;4.47;3.20;;;;;;;21.44;96.88;101635.19;5027247;28;20485;-90
2023/09/09 08:48:27;;;;;;;11.40;6.50;;;;;;;21.51;95.95;101633.13;5022114;28;20565;-89
2023/09/09 08:50:57;;;;;;;7.93;4.68;;;;;;;21.64;96.56;101637.81;5029089;28;20029;-89
2023/09/09 08:53:26;;;;;;;5.95;3.90;;;;;;;21.74;95.80;101644.38;5023996;28;20029;-88
2023/09/09 08:56:07;;;;;;;4.45;3.30;;;;;;;21.81;95.98;101636.97;5026527;28;20080;-89
2023/09/09 08:58:33;;;;;;;24.65;17.67;;;;;;;21.80;93.55;101630.00;5029818;28;20398;-88
2023/09/09 09:01:02;;;;;;;17.88;10.20;;;;;;;21.91;94.85;101647.00;5027780;28;20024;-89
2023/09/09 09:03:28;;;;;;;17.77;10.27;;;;;;;22.00;93.42;101643.03;5025262;28;20018;-89
2023/09/09 09:05:54;;;;;;;10.77;6.18;;;;;;;22.12;93.96;101649.50;5022522;28;20017;-89
2023/09/09 09:08:19;;;;;;;13.68;7.93;;;;;;;22.24;93.37;101653.28;5026298;28;20042;-89
2023/09/09 09:11:03;;;;;;;19.67;12.50;;;;;;;22.21;91.58;101632.28;5032742;28;20511;-88
2023/09/09 09:13:31;;;;;;;18.67;10.93;;;;;;;22.32;91.86;101645.81;5041264;28;20032;-88
2023/09/09 09:15:56;;;;;;;13.98;8.07;;;;;;;22.51;91.93;101655.47;5033896;28;20446;-90
2023/09/09 09:18:36;;;;;;;17.93;10.93;;;;;;;22.60;91.31;101652.31;5033641;28;20022;-91
2023/09/09 09:21:06;;;;;;;9.32;6.03;;;;;;;22.74;92.04;101651.56;5034426;28;20017;-92
2023/09/09 09:23:47;;;;;;;6.00;4.20;;;;;;;22.89;91.83;101647.25;5034243;28;20069;-92
2023/09/09 09:26:25;;;;;;;11.43;6.93;;;;;;;23.13;88.69;101658.28;5013392;28;20463;-92
2023/09/09 09:28:51;;;;;;;15.73;9.32;;;;;;;23.21;90.11;101657.03;5014360;28;20105;-91
2023/09/09 09:31:32;;;;;;;18.38;10.90;;;;;;;23.26;89.33;101645.22;5013797;28;20049;-93
2023/09/09 09:33:59;;;;;;;14.48;8.43;;;;;;;23.42;89.43;101647.00;5014150;28;20458;-92
2023/09/09 09:36:40;;;;;;;8.82;5.47;;;;;;;23.53;89.63;101639.28;5013947;28;20033;-93
2023/09/09 09:39:11;;;;;;;17.95;11.25;;;;;;;23.63;84.12;101630.81;5018198;28;20053;-91
2023/09/09 09:41:52;;;;;;;21.55;13.63;;;;;;;23.69;83.23;101644.56;5029121;28;20025;-92
2023/09/09 09:44:19;;;;;;;19.83;12.40;;;;;;;23.71;83.88;101647.97;5033458;28;20025;-92
2023/09/09 09:47:03;;;;;;;19.92;12.65;;;;;;;23.79;84.86;101647.53;5033652;28;20032;-92
2023/09/09 09:49:39;;;;;;;12.45;7.20;;;;;;;23.97;86.12;101639.47;5033462;28;20029;-91
2023/09/09 09:52:06;;;;;;;7.53;5.15;;;;;;;24.17;86.31;101644.44;5033538;28;20446;-93
2023/09/09 10:05:30;;;;;;;10.02;6.20;;;;;;;24.66;81.37;101656.47;4958065;29;20038;-95
2023/09/09 10:08:11;;;;;;;8.70;6.15;;;;;;;24.85;71.56;101654.50;4956631;28;20472;-89
2023/09/09 10:10:41;;;;;;;11.32;7.13;;;;;;;24.88;74.08;101649.00;5002952;28;20049;-90
2023/09/09 10:13:16;;;;;;;6.35;4.70;;;;;;;25.02;78.34;101646.31;5017060;28;20112;-90
2023/09/09 10:16:01;;;;;;;4.97;3.80;;;;;;;25.16;79.07;101637.47;5016519;28;20080;-90
2023/09/09 10:18:28;;;;;;;8.20;4.88;;;;;;;25.36;74.21;101644.13;4997388;28;20061;-88
2023/09/09 10:21:17;;;;;;;5.00;3.85;;;;;;;25.48;65.70;101647.81;4997187;28;20429;-89
2023/09/09 10:23:51;;;;;;;13.38;7.25;;;;;;;25.35;70.42;101622.97;4997857;28;20038;-90
2023/09/09 10:26:55;;;;;;;6.43;4.38;;;;;;;25.59;73.24;101644.44;4997750;28;20026;-89
2023/09/09 10:29:21;;;;;;;11.32;6.70;;;;;;;25.66;61.19;101637.78;4997971;28;20033;-92
2023/09/09 10:32:05;;;;;;;11.00;6.63;;;;;;;25.64;68.21;101642.34;4998306;28;20026;-92
2023/09/09 10:35:12;;;;;;;6.25;4.35;;;;;;;25.82;71.44;101631.41;4999097;28;20033;-91
2023/09/09 10:37:56;;;;;;;8.82;5.90;;;;;;;26.02;65.01;101641.53;4961284;29;20039;-91
2023/09/09 10:40:29;;;;;;;13.75;7.82;;;;;;;26.00;64.30;101627.50;4956514;29;20094;-91
2023/09/09 10:42:54;;;;;;;11.60;6.90;;;;;;;26.07;64.04;101638.56;4957111;28;20036;-91
2023/09/09 10:45:42;;;;;;;6.88;5.03;;;;;;;26.24;66.05;101645.41;4957062;28;20110;-92
2023/09/09 10:48:10;;;;;;;6.93;5.18;;;;;;;26.34;64.15;101643.84;4969455;28;20042;-93
2023/09/09 10:50:53;;;;;;;5.00;3.97;;;;;;;26.40;68.02;101629.25;4978129;28;20027;-93
2023/09/09 10:53:40;;;;;;;4.57;3.55;;;;;;;26.67;58.27;101647.72;4976902;28;20027;-91
2023/09/09 10:56:43;;;;;;;5.35;4.28;;;;;;;26.63;59.74;101618.75;5017361;28;20026;-93
2023/09/09 10:59:36;;;;;;;8.05;5.38;;;;;;;26.77;62.60;101641.75;4981463;28;20046;-93
2023/09/09 11:02:24;;;;;;;4.47;3.78;;;;;;;26.87;65.51;101637.47;5016743;28;20105;-92
2023/09/09 11:05:16;;;;;;;4.30;3.50;;;;;;;27.05;59.62;101634.44;5016554;28;20022;-86
2023/09/09 11:07:43;;;;;;;6.50;4.30;;;;;;;27.10;60.75;101637.63;5022661;28;20049;-85
2023/09/09 11:10:14;;;;;;;6.70;4.30;;;;;;;27.15;59.88;101629.28;5035109;28;20462;-85
2023/09/09 11:12:49;;;;;;;5.88;4.18;;;;;;;27.26;60.15;101629.34;5035502;28;20095;-85
2023/09/09 11:15:15;;;;;;;4.25;3.42;;;;;;;27.35;60.79;101626.00;5034636;28;20033;-85
2023/09/09 11:17:44;;;;;;;3.30;3.00;;;;;;;27.52;61.29;101624.75;5035060;28;20025;-86
2023/09/09 11:20:12;;;;;;;5.82;4.28;;;;;;;27.54;50.38;101625.50;5034955;28;20026;-85
2023/09/09 11:22:40;;;;;;;5.93;3.90;;;;;;;27.41;57.12;101609.56;5034132;28;20033;-86
2023/09/09 11:25:06;;;;;;;5.78;3.95;;;;;;;27.52;55.74;101622.09;5034843;28;20033;-86
2023/09/09 11:27:33;;;;;;;;;;;;;;;27.61;58.02;101622.34;5035806;28;20071;-83
2023/09/09 11:30:13;;;;;;;3.75;3.00;;;;;;;27.78;59.27;101627.28;5102498;23;19921;-94
2023/09/09 11:32:49;;;;;;;3.60;2.90;;;;;;;27.82;59.61;101607.38;5056045;28;20028;-95
2023/09/09 11:35:16;;;;;;;2.83;2.60;;;;;;;28.04;59.79;101625.25;5068834;28;20025;-91
2023/09/09 11:38:01;;;;;;;2.70;2.50;;;;;;;28.09;59.48;101606.25;5038518;28;20411;-93
2023/09/09 11:40:27;;;;;;;2.80;2.53;;;;;;;28.20;53.07;101605.44;5046291;28;20090;-93
2023/09/09 11:42:53;;;;;;;5.25;3.80;;;;;;;28.20;49.89;101622.28;5052643;28;20045;-91
2023/09/09 11:45:24;;;;;;;;;;;;;;;28.17;51.74;101627.00;5055489;28;20428;-91
2023/09/09 11:47:55;;;;;;;5.07;3.90;;;;;;;28.07;50.43;101626.81;5050241;28;19917;-91